Time;durP1;ratioP1;P1;durP2;ratioP2;P2;SDS_P1;SDS_P2;PMS_P1;PMS_P2;Temp;Humidity;BMP_temperature;BMP_pressure;BME280_temperature;BME280_humidity;BME280_pressure;Samples;Min_cycle;Max_cycle;Signal;HPM_P1;HPM_P2
2023/12/14 00:02:15;;;;;;;0.70;0.20;;;;;;;1.25;100.00;100061.92;104879;1257;66866;-59
2023/12/14 00:04:43;;;;;;;0.50;0.30;;;;;;;1.23;100.00;100056.63;104678;1253;71554;-56
2023/12/14 00:07:14;;;;;;;0.30;0.30;;;;;;;1.19;100.00;100055.23;104992;1251;61001;-57
2023/12/14 00:09:41;;;;;;;0.10;0.10;;;;;;;1.15;100.00;100051.02;105996;1254;60538;-57
2023/12/14 00:12:09;;;;;;;0.20;0.20;;;;;;;1.13;100.00;100047.66;104910;1251;74009;-56
2023/12/14 00:14:37;;;;;;;0.20;0.20;;;;;;;1.12;100.00;100045.36;104879;1256;66771;-55
2023/12/14 00:17:04;;;;;;;0.20;0.10;;;;;;;1.14;100.00;100044.83;105078;1254;74913;-56
2023/12/14 00:19:31;;;;;;;0.20;0.20;;;;;;;1.16;100.00;100040.41;105659;1253;60486;-56
2023/12/14 00:21:59;;;;;;;0.40;0.10;;;;;;;1.16;100.00;100041.29;104875;1257;60511;-58
2023/12/14 00:24:26;;;;;;;0.20;0.20;;;;;;;1.17;100.00;100034.05;104870;1251;73393;-57
2023/12/14 00:26:54;;;;;;;0.20;0.20;;;;;;;1.18;100.00;100036.52;104994;1251;66419;-54
2023/12/14 00:29:21;;;;;;;0.50;0.20;;;;;;;1.16;100.00;100033.52;104963;1256;71472;-56
2023/12/14 00:31:49;;;;;;;0.20;0.10;;;;;;;1.13;100.00;100031.92;104962;1257;60958;-59
2023/12/14 00:34:16;;;;;;;0.20;0.10;;;;;;;1.11;100.00;100034.23;104949;1253;60443;-56
2023/12/14 00:36:44;;;;;;;0.20;0.10;;;;;;;1.11;100.00;100030.52;104990;1253;73695;-55
2023/12/14 00:39:11;;;;;;;0.20;0.10;;;;;;;1.12;100.00;100020.98;105138;1251;65858;-56
2023/12/14 00:41:38;;;;;;;0.30;0.20;;;;;;;1.13;100.00;100014.96;104937;1254;71033;-55
2023/12/14 00:44:06;;;;;;;0.20;0.20;;;;;;;1.14;100.00;100011.42;105198;1251;60625;-56
2023/12/14 00:46:33;;;;;;;0.20;0.20;;;;;;;1.13;100.00;100007.72;104900;1257;60518;-55
2023/12/14 00:49:02;;;;;;;0.20;0.20;;;;;;;1.10;100.00;100002.61;105017;1256;74316;-56
2023/12/14 00:51:29;;;;;;;0.30;0.20;;;;;;;1.10;100.00;100002.80;106712;1252;67049;-56
2023/12/14 00:53:57;;;;;;;0.10;0.10;;;;;;;1.08;100.00;100000.69;104962;1256;72648;-56
2023/12/14 00:56:24;;;;;;;0.40;0.20;;;;;;;1.08;100.00;99998.04;105072;1251;60991;-55
2023/12/14 00:58:52;;;;;;;0.20;0.20;;;;;;;1.08;100.00;99996.98;104996;1253;60566;-56
2023/12/14 01:01:19;;;;;;;0.40;0.20;;;;;;;1.08;100.00;99986.37;104969;1251;74269;-57
2023/12/14 01:03:47;;;;;;;0.30;0.20;;;;;;;1.10;100.00;99987.77;104930;1252;65939;-57
2023/12/14 01:06:14;;;;;;;0.10;0.10;;;;;;;1.10;100.00;99986.90;105262;1256;71479;-57
2023/12/14 01:08:42;;;;;;;0.40;0.20;;;;;;;1.07;100.00;99983.38;104921;1253;61203;-56
2023/12/14 01:11:10;;;;;;;0.20;0.10;;;;;;;1.05;100.00;99976.66;104983;1251;60517;-57
2023/12/14 01:13:38;;;;;;;0.10;0.10;;;;;;;1.03;100.00;99978.08;105075;1253;74432;-58
2023/12/14 01:16:06;;;;;;;0.10;0.10;;;;;;;1.02;100.00;99977.23;104861;1257;64643;-57
2023/12/14 01:18:33;;;;;;;0.20;0.10;;;;;;;1.03;100.00;99975.24;104766;1254;73052;-57
2023/12/14 01:21:01;;;;;;;0.10;0.10;;;;;;;1.07;100.00;99980.37;104842;1253;60542;-57
2023/12/14 01:23:28;;;;;;;0.30;0.20;;;;;;;1.09;100.00;99977.71;105090;1254;60607;-57
2023/12/14 01:25:56;;;;;;;0.20;0.20;;;;;;;1.10;100.00;99973.64;104671;1256;74434;-57
2023/12/14 01:28:23;;;;;;;0.20;0.20;;;;;;;1.10;100.00;99963.02;105929;1253;67429;-57
2023/12/14 01:30:52;;;;;;;0.30;0.20;;;;;;;1.09;100.00;99953.32;105938;1253;71855;-56
2023/12/14 01:33:19;;;;;;;0.30;0.20;;;;;;;1.06;100.00;99952.27;108925;1253;59710;-58
2023/12/14 01:35:47;;;;;;;0.40;0.30;;;;;;;1.03;100.00;99942.39;109086;1252;59166;-57
2023/12/14 01:38:14;;;;;;;0.30;0.20;;;;;;;1.02;100.00;99944.00;105255;1256;73934;-58
2023/12/14 01:40:42;;;;;;;0.20;0.20;;;;;;;1.02;100.00;99932.16;105203;1256;65615;-58
2023/12/14 01:43:12;;;;;;;0.40;0.30;;;;;;;1.04;100.00;99927.54;104847;1254;72423;-57
2023/12/14 01:45:39;;;;;;;0.30;0.30;;;;;;;1.05;100.00;99927.89;104768;1257;60639;-57
2023/12/14 01:48:07;;;;;;;0.30;0.30;;;;;;;1.07;100.00;99921.69;105043;1254;60436;-56
2023/12/14 01:50:35;;;;;;;0.30;0.20;;;;;;;1.04;100.00;99918.17;104957;1253;73600;-58
2023/12/14 01:53:02;;;;;;;0.40;0.30;;;;;;;1.01;100.00;99915.38;104885;1257;67263;-55
2023/12/14 01:55:30;;;;;;;0.30;0.30;;;;;;;0.98;100.00;99912.56;104938;1252;72449;-57
2023/12/14 01:57:58;;;;;;;0.40;0.30;;;;;;;0.95;100.00;99906.73;104935;1253;60429;-57
2023/12/14 02:00:41;;;;;;;0.30;0.20;;;;;;;0.94;100.00;99902.33;104790;1256;60495;-56
2023/12/14 02:03:08;;;;;;;0.30;0.20;;;;;;;0.94;100.00;99898.27;105466;1251;73880;-57
2023/12/14 02:05:36;;;;;;;0.30;0.30;;;;;;;0.95;100.00;99885.02;105150;1252;65644;-58
2023/12/14 02:08:04;;;;;;;0.20;0.20;;;;;;;0.95;100.00;99878.12;105153;1256;72703;-58
2023/12/14 02:10:32;;;;;;;0.60;0.40;;;;;;;0.96;100.00;99866.46;105664;1256;60276;-56
2023/12/14 02:13:01;;;;;;;0.50;0.40;;;;;;;0.94;100.00;99864.35;105018;1251;61866;-57
2023/12/14 02:15:29;;;;;;;0.40;0.30;;;;;;;0.93;100.00;99860.48;106502;1251;73915;-54
2023/12/14 02:17:56;;;;;;;0.90;0.50;;;;;;;0.91;100.00;99851.66;105110;1253;67284;-57
2023/12/14 02:20:24;;;;;;;0.40;0.30;;;;;;;0.90;100.00;99844.60;105115;1253;71550;-57
2023/12/14 02:22:55;;;;;;;0.50;0.20;;;;;;;0.90;100.00;99842.66;104981;1256;61690;-57
2023/12/14 02:25:23;;;;;;;0.50;0.40;;;;;;;0.92;100.00;99840.70;105349;1251;60499;-55
2023/12/14 02:27:51;;;;;;;0.70;0.40;;;;;;;0.93;100.00;99842.11;107834;1251;74299;-57
2023/12/14 02:30:19;;;;;;;0.80;0.50;;;;;;;0.93;100.00;99838.05;105382;1253;67454;-55
2023/12/14 02:32:46;;;;;;;1.40;0.50;;;;;;;0.92;100.00;99838.58;105345;1256;73089;-57
2023/12/14 02:35:14;;;;;;;1.20;0.40;;;;;;;0.90;100.00;99834.89;104985;1251;60478;-54
2023/12/14 02:37:41;;;;;;;0.60;0.40;;;;;;;0.87;100.00;99827.13;104969;1254;60498;-56
2023/12/14 02:40:09;;;;;;;0.40;0.30;;;;;;;0.84;100.00;99824.16;104960;1255;74336;-55
2023/12/14 02:42:37;;;;;;;0.20;0.20;;;;;;;0.83;100.00;99823.81;104939;1257;66244;-57
2023/12/14 02:45:05;;;;;;;0.40;0.30;;;;;;;0.84;100.00;99822.39;104986;1256;72699;-57
2023/12/14 02:47:33;;;;;;;0.70;0.30;;;;;;;0.85;100.00;99826.27;105052;1253;60457;-56
2023/12/14 02:50:00;;;;;;;0.40;0.40;;;;;;;0.87;100.00;99822.00;105031;1251;60571;-57
2023/12/14 02:52:28;;;;;;;0.50;0.30;;;;;;;0.87;100.00;99826.95;105055;1253;72540;-57
2023/12/14 02:54:55;;;;;;;0.30;0.30;;;;;;;0.87;100.00;99827.66;104884;1256;67081;-56
2023/12/14 02:57:22;;;;;;;0.30;0.30;;;;;;;0.86;100.00;99817.58;104965;1256;72762;-55
2023/12/14 02:59:50;;;;;;;0.30;0.30;;;;;;;0.86;100.00;99816.70;105008;1253;61502;-58
2023/12/14 03:02:17;;;;;;;1.00;0.30;;;;;;;0.86;100.00;99816.71;102724;1251;3517589;-58
2023/12/14 03:06:39;;;;;;;0.30;0.20;;;;;;;0.82;100.00;99920.98;101435;1291;601952;-57
2023/12/14 03:09:07;;;;;;;0.30;0.30;;;;;;;0.84;100.00;99957.20;103862;1266;59380;-57
2023/12/14 03:11:34;;;;;;;0.40;0.30;;;;;;;0.86;100.00;99933.13;103771;1267;60492;-56
2023/12/14 03:14:02;;;;;;;0.20;0.20;;;;;;;0.88;100.00;99925.35;103435;1266;72664;-57
2023/12/14 03:16:29;;;;;;;0.30;0.20;;;;;;;0.87;100.00;99909.63;103822;1272;66970;-58
2023/12/14 03:18:57;;;;;;;0.20;0.20;;;;;;;0.86;100.00;99895.14;104524;1268;72279;-57
2023/12/14 03:21:24;;;;;;;0.20;0.20;;;;;;;0.86;100.00;99894.45;101659;1262;3670197;-58
2023/12/14 03:23:51;;;;;;;0.30;0.20;;;;;;;0.88;100.00;99883.48;104438;1262;59683;-55
2023/12/14 03:26:19;;;;;;;0.30;0.20;;;;;;;0.90;100.00;99875.88;104457;1265;59350;-58
2023/12/14 03:28:46;;;;;;;0.20;0.20;;;;;;;0.93;100.00;99863.48;104437;1265;59352;-58
2023/12/14 03:31:14;;;;;;;0.40;0.30;;;;;;;0.93;100.00;99861.71;104457;1261;72753;-56
2023/12/14 03:33:42;;;;;;;0.20;0.20;;;;;;;0.93;100.00;99859.42;104377;1265;59677;-57
2023/12/14 03:36:10;;;;;;;0.20;0.20;;;;;;;0.92;100.00;99855.55;104792;1265;59632;-57
2023/12/14 03:38:37;;;;;;;0.10;0.10;;;;;;;0.90;100.00;99847.77;104509;1265;74681;-57
2023/12/14 03:41:05;;;;;;;0.20;0.10;;;;;;;0.88;100.00;99838.95;104534;1265;66791;-57
2023/12/14 03:43:32;;;;;;;0.70;0.20;;;;;;;0.87;100.00;99840.02;104582;1261;72720;-58
2023/12/14 03:46:00;;;;;;;0.10;0.10;;;;;;;0.88;100.00;99834.54;104331;1263;59737;-58
2023/12/14 03:48:27;;;;;;;0.30;0.30;;;;;;;0.87;100.00;99831.72;104363;1265;59654;-58
2023/12/14 03:50:55;;;;;;;0.20;0.10;;;;;;;0.90;100.00;99828.17;104493;1260;73493;-57
2023/12/14 03:53:22;;;;;;;0.10;0.10;;;;;;;0.93;100.00;99827.09;104374;1261;66084;-57
2023/12/14 03:55:49;;;;;;;0.30;0.10;;;;;;;0.96;100.00;99822.81;104255;1261;71497;-58
2023/12/14 03:58:17;;;;;;;0.10;0.10;;;;;;;0.95;100.00;99818.23;104138;1262;59892;-57
2023/12/14 04:00:44;;;;;;;0.20;0.10;;;;;;;0.93;100.00;99814.55;104425;1261;59812;-58
2023/12/14 04:03:12;;;;;;;0.00;0.00;;;;;;;0.91;100.00;99810.15;104316;1265;71181;-56
2023/12/14 04:05:39;;;;;;;0.10;0.10;;;;;;;0.88;100.00;99809.10;104326;1265;65675;-58
2023/12/14 04:08:07;;;;;;;0.10;0.00;;;;;;;0.86;100.00;99803.98;108630;1260;72762;-58
2023/12/14 04:10:35;;;;;;;0.10;0.00;;;;;;;0.88;100.00;99805.21;108494;1261;59669;-58
2023/12/14 04:13:02;;;;;;;0.10;0.00;;;;;;;0.91;100.00;99807.85;108520;1260;58297;-58
2023/12/14 04:15:29;;;;;;;0.30;0.10;;;;;;;0.94;100.00;99804.63;108515;1261;73147;-56
2023/12/14 04:17:57;;;;;;;0.10;0.00;;;;;;;0.96;100.00;99800.37;109044;1253;66764;-56
2023/12/14 04:20:24;;;;;;;0.10;0.10;;;;;;;0.98;100.00;99799.65;106577;1256;72708;-57
2023/12/14 04:22:52;;;;;;;0.10;0.10;;;;;;;0.99;100.00;99799.12;104881;1254;59735;-56
2023/12/14 04:25:19;;;;;;;0.10;0.10;;;;;;;0.99;100.00;99789.75;106284;1255;59681;-57
2023/12/14 04:27:47;;;;;;;0.10;0.10;;;;;;;0.98;100.00;99787.28;104886;1254;73060;-58
2023/12/14 04:30:14;;;;;;;0.10;0.10;;;;;;;0.98;100.00;99784.98;104947;1253;65671;-56
2023/12/14 04:32:42;;;;;;;0.00;0.00;;;;;;;1.00;100.00;99786.75;104618;1253;75019;-58
2023/12/14 04:35:10;;;;;;;0.10;0.10;;;;;;;1.02;100.00;99785.48;107879;1253;58306;-58
2023/12/14 04:37:37;;;;;;;0.20;0.10;;;;;;;1.03;100.00;99784.22;106297;1254;60568;-58
2023/12/14 04:40:05;;;;;;;0.10;0.10;;;;;;;1.05;100.00;99775.90;104964;1253;73109;-58
2023/12/14 04:42:33;;;;;;;0.10;0.10;;;;;;;1.06;100.00;99784.91;104753;1253;66892;-58
2023/12/14 04:45:01;;;;;;;0.20;0.10;;;;;;;1.07;100.00;99777.66;104957;1260;72782;-58
2023/12/14 04:47:28;;;;;;;0.10;0.10;;;;;;;1.06;100.00;99774.13;104843;1253;60965;-56
2023/12/14 04:49:56;;;;;;;0.10;0.00;;;;;;;1.05;100.00;99770.60;104916;1254;59170;-58
2023/12/14 04:52:23;;;;;;;0.10;0.10;;;;;;;1.07;100.00;99768.48;104764;1258;73118;-58
2023/12/14 04:54:51;;;;;;;0.10;0.10;;;;;;;1.08;100.00;99767.05;104795;1253;68526;-57
2023/12/14 04:57:18;;;;;;;0.20;0.10;;;;;;;1.07;100.00;99765.11;104818;1256;72951;-57
2023/12/14 04:59:46;;;;;;;0.20;0.10;;;;;;;1.09;100.00;99758.55;104918;1257;59797;-57
2023/12/14 05:02:13;;;;;;;0.10;0.10;;;;;;;1.10;100.00;99761.73;104827;1253;60113;-56
2023/12/14 05:04:41;;;;;;;0.10;0.10;;;;;;;1.09;100.00;99756.61;104858;1253;73093;-56
2023/12/14 05:07:08;;;;;;;0.10;0.10;;;;;;;1.06;100.00;99750.27;104816;1253;65508;-58
2023/12/14 05:09:35;;;;;;;0.10;0.00;;;;;;;1.03;100.00;99743.95;104859;1253;72472;-59
2023/12/14 05:12:04;;;;;;;0.00;0.00;;;;;;;1.00;100.00;99736.91;104841;1258;59676;-58
2023/12/14 05:14:31;;;;;;;0.20;0.10;;;;;;;0.98;100.00;99735.16;104743;1253;60499;-57
2023/12/14 05:16:58;;;;;;;0.10;0.00;;;;;;;0.99;100.00;99728.62;104741;1253;73564;-57
2023/12/14 05:19:26;;;;;;;0.00;0.00;;;;;;;1.00;100.00;99724.02;104705;1254;69362;-59
2023/12/14 05:21:54;;;;;;;0.00;0.00;;;;;;;1.01;100.00;99727.02;104922;1259;73121;-58
2023/12/14 05:24:21;;;;;;;0.20;0.10;;;;;;;1.02;100.00;99720.09;105087;1253;60300;-59
2023/12/14 05:26:49;;;;;;;0.00;0.00;;;;;;;1.03;100.00;99722.71;104964;1257;59605;-58
2023/12/14 05:29:17;;;;;;;0.10;0.10;;;;;;;1.03;100.00;99719.19;104873;1253;73118;-57
2023/12/14 05:31:44;;;;;;;0.10;0.00;;;;;;;1.02;100.00;99718.50;105062;1253;67033;-58
2023/12/14 05:34:12;;;;;;;0.10;0.00;;;;;;;1.01;100.00;99716.05;104974;1254;71233;-58
2023/12/14 05:36:39;;;;;;;0.20;0.20;;;;;;;1.02;100.00;99714.80;104993;1255;61008;-56
2023/12/14 05:39:07;;;;;;;0.00;0.00;;;;;;;1.03;100.00;99710.89;104929;1256;59932;-58
2023/12/14 05:41:40;;;;;;;0.70;0.00;;;;;;;1.03;100.00;99710.01;104900;1258;71836;-57
2023/12/14 05:44:07;;;;;;;0.00;0.00;;;;;;;1.03;100.00;99709.82;104808;1253;66123;-58
2023/12/14 05:46:35;;;;;;;0.50;0.00;;;;;;;1.02;100.00;99709.49;104979;1257;74042;-57
2023/12/14 05:49:03;;;;;;;0.10;0.00;;;;;;;1.01;100.00;99701.92;105343;1254;60914;-58
2023/12/14 05:51:31;;;;;;;0.10;0.10;;;;;;;0.99;100.00;99696.63;105945;1258;60012;-57
2023/12/14 05:53:59;;;;;;;0.30;0.00;;;;;;;0.97;100.00;99695.58;104740;1253;71853;-58
2023/12/14 05:56:26;;;;;;;0.20;0.10;;;;;;;0.97;100.00;99693.46;104869;1254;66779;-58
2023/12/14 05:58:54;;;;;;;0.10;0.10;;;;;;;0.99;100.00;99698.92;105046;1256;72687;-57
2023/12/14 06:01:23;;;;;;;0.20;0.20;;;;;;;1.01;100.00;99695.21;105197;1254;59716;-58
2023/12/14 06:03:50;;;;;;;0.30;0.20;;;;;;;1.02;100.00;99697.81;106210;1254;62083;-57
2023/12/14 06:06:18;;;;;;;0.20;0.10;;;;;;;1.06;100.00;99699.20;104931;1253;72127;-57
2023/12/14 06:08:46;;;;;;;0.50;0.20;;;;;;;1.08;100.00;99698.13;105482;1254;65793;-58
2023/12/14 06:11:14;;;;;;;0.10;0.10;;;;;;;1.07;100.00;99699.90;105030;1254;71492;-58
2023/12/14 06:13:41;;;;;;;0.50;0.10;;;;;;;1.06;100.00;99693.89;104886;1258;60210;-58
2023/12/14 06:16:12;;;;;;;0.20;0.10;;;;;;;1.05;100.00;99692.67;104816;1253;59770;-59
2023/12/14 06:18:43;;;;;;;0.30;0.10;;;;;;;1.02;100.00;99691.98;105668;1254;77043;-57
2023/12/14 06:21:11;;;;;;;0.10;0.10;;;;;;;1.04;100.00;99688.62;105032;1258;65984;-57
2023/12/14 06:23:38;;;;;;;0.30;0.20;;;;;;;1.06;100.00;99687.72;104673;1259;72754;-58
2023/12/14 06:26:06;;;;;;;0.20;0.20;;;;;;;1.07;100.00;99691.23;104952;1256;59676;-60
2023/12/14 06:28:34;;;;;;;0.30;0.20;;;;;;;1.08;100.00;99684.52;107052;1257;58813;-60
2023/12/14 06:31:01;;;;;;;0.20;0.20;;;;;;;1.06;100.00;99684.70;105038;1256;71867;-59
2023/12/14 06:33:29;;;;;;;0.50;0.20;;;;;;;1.05;100.00;99679.23;105310;1257;65785;-59
2023/12/14 06:35:57;;;;;;;0.80;0.20;;;;;;;1.04;100.00;99677.30;105317;1253;72739;-58
2023/12/14 06:38:24;;;;;;;0.30;0.10;;;;;;;1.03;100.00;99677.31;104771;1258;59571;-58
2023/12/14 06:40:51;;;;;;;0.70;0.10;;;;;;;1.04;100.00;99669.70;104730;1258;60400;-58
2023/12/14 06:43:19;;;;;;;0.70;0.20;;;;;;;1.05;100.00;99674.83;104889;1254;73102;-56
2023/12/14 06:45:46;;;;;;;1.90;0.20;;;;;;;1.07;100.00;99671.45;104733;1253;65870;-58
2023/12/14 06:48:14;;;;;;;0.70;0.30;;;;;;;1.09;100.00;99669.66;104688;1254;72550;-59
2023/12/14 06:50:41;;;;;;;0.40;0.20;;;;;;;1.10;100.00;99665.60;109055;1253;58005;-59
2023/12/14 06:53:11;;;;;;;0.30;0.20;;;;;;;1.09;100.00;99666.66;108865;1253;59100;-58
2023/12/14 06:55:39;;;;;;;2.40;0.20;;;;;;;1.08;100.00;99664.90;108906;1253;72004;-60
2023/12/14 06:58:11;;;;;;;0.20;0.20;;;;;;;1.08;100.00;99660.48;108967;1253;66759;-59
2023/12/14 07:00:38;;;;;;;0.40;0.10;;;;;;;1.10;100.00;99655.16;108980;1253;72713;-60
2023/12/14 07:03:06;;;;;;;0.10;0.10;;;;;;;1.12;100.00;99656.89;108951;1253;58093;-60
2023/12/14 07:05:33;;;;;;;0.20;0.10;;;;;;;1.14;100.00;99656.86;108935;1253;60092;-61
2023/12/14 07:08:01;;;;;;;0.90;0.40;;;;;;;1.17;100.00;99654.02;108972;1253;73075;-60
2023/12/14 07:10:28;;;;;;;0.30;0.20;;;;;;;1.17;100.00;99650.66;109148;1253;66002;-61
2023/12/14 07:12:56;;;;;;;0.20;0.10;;;;;;;1.15;100.00;99645.20;108924;1253;71493;-59
2023/12/14 07:15:23;;;;;;;0.10;0.10;;;;;;;1.13;100.00;99642.39;109053;1253;59834;-60
2023/12/14 07:17:51;;;;;;;1.60;0.10;;;;;;;1.12;100.00;99640.63;109031;1253;58828;-60
2023/12/14 07:20:18;;;;;;;0.50;0.20;;;;;;;1.12;100.00;99630.90;105184;1253;74025;-58
2023/12/14 07:22:46;;;;;;;0.20;0.10;;;;;;;1.13;100.00;99628.60;104824;1253;66022;-59
2023/12/14 07:25:13;;;;;;;0.10;0.10;;;;;;;1.15;100.00;99628.58;104763;1253;72744;-59
2023/12/14 07:27:41;;;;;;;0.20;0.20;;;;;;;1.15;100.00;99640.42;104963;1256;60528;-58
2023/12/14 07:30:10;;;;;;;0.20;0.10;;;;;;;1.14;100.00;99634.06;104798;1257;60352;-59
2023/12/14 07:32:37;;;;;;;0.70;0.20;;;;;;;1.12;100.00;99625.96;104619;1259;73880;-60
2023/12/14 07:35:05;;;;;;;1.60;0.10;;;;;;;1.10;100.00;99629.90;104895;1258;66789;-59
2023/12/14 07:37:33;;;;;;;0.20;0.10;;;;;;;1.08;100.00;99631.33;104860;1258;73714;-58
2023/12/14 07:40:01;;;;;;;0.20;0.10;;;;;;;1.09;100.00;99627.08;105001;1258;60566;-59
2023/12/14 07:42:28;;;;;;;0.10;0.10;;;;;;;1.10;100.00;99626.19;105191;1253;62486;-59
2023/12/14 07:44:56;;;;;;;0.20;0.10;;;;;;;1.11;100.00;99625.98;104748;1253;73743;-59
2023/12/14 07:47:23;;;;;;;0.30;0.10;;;;;;;1.12;100.00;99627.90;104829;1257;67541;-59
2023/12/14 07:49:51;;;;;;;1.50;0.20;;;;;;;1.12;100.00;99626.48;104769;1255;73097;-59
2023/12/14 07:52:18;;;;;;;0.20;0.10;;;;;;;1.12;100.00;99624.02;104913;1256;60919;-60
2023/12/14 07:54:46;;;;;;;0.20;0.10;;;;;;;1.10;100.00;99624.77;104825;1258;60464;-58
2023/12/14 07:57:13;;;;;;;0.10;0.10;;;;;;;1.07;100.00;99626.38;104815;1253;72635;-56
2023/12/14 07:59:41;;;;;;;0.10;0.00;;;;;;;1.05;100.00;99622.16;105047;1256;65611;-58
2023/12/14 08:02:08;;;;;;;1.20;0.10;;;;;;;1.04;100.00;99623.94;104898;1257;72742;-58
2023/12/14 08:04:36;;;;;;;0.30;0.10;;;;;;;1.04;100.00;99619.34;105447;1258;60890;-58
2023/12/14 08:07:04;;;;;;;0.10;0.10;;;;;;;1.06;100.00;99614.20;104777;1254;60592;-57
2023/12/14 08:09:31;;;;;;;0.20;0.10;;;;;;;1.06;100.00;99613.67;104816;1253;73828;-59
2023/12/14 08:11:59;;;;;;;1.00;0.10;;;;;;;1.06;100.00;99607.48;105033;1259;66981;-60
2023/12/14 08:14:26;;;;;;;0.30;0.10;;;;;;;1.04;100.00;99600.42;104875;1253;71488;-57
2023/12/14 08:16:54;;;;;;;0.20;0.10;;;;;;;1.03;100.00;99590.91;104934;1255;61483;-57
2023/12/14 08:19:22;;;;;;;0.70;0.10;;;;;;;1.02;100.00;99586.52;105336;1253;60420;-58
2023/12/14 08:21:49;;;;;;;0.20;0.10;;;;;;;1.01;100.00;99580.52;104776;1256;72677;-58
2023/12/14 08:24:16;;;;;;;0.20;0.10;;;;;;;1.02;100.00;99572.53;104756;1253;68730;-59
2023/12/14 08:26:44;;;;;;;0.10;0.00;;;;;;;1.04;100.00;99574.11;104698;1254;71481;-59
2023/12/14 08:29:11;;;;;;;0.10;0.10;;;;;;;1.08;100.00;99577.95;104701;1255;60578;-60
2023/12/14 08:31:39;;;;;;;0.50;0.10;;;;;;;1.12;100.00;99570.65;105049;1258;60565;-61
2023/12/14 08:34:06;;;;;;;0.10;0.10;;;;;;;1.15;100.00;99570.78;104733;1252;72731;-59
2023/12/14 08:36:34;;;;;;;0.20;0.10;;;;;;;1.14;100.00;99564.08;104822;1259;65662;-60
2023/12/14 08:39:02;;;;;;;0.20;0.10;;;;;;;1.13;100.00;99569.73;104839;1253;72659;-60
2023/12/14 08:41:29;;;;;;;0.20;0.10;;;;;;;1.11;100.00;99578.41;104962;1257;60894;-59
2023/12/14 08:43:57;;;;;;;0.10;0.10;;;;;;;1.11;100.00;99574.73;104696;1259;60381;-59
2023/12/14 08:46:24;;;;;;;0.10;0.00;;;;;;;1.10;100.00;99577.40;104976;1253;72686;-61
2023/12/14 08:48:51;;;;;;;0.10;0.00;;;;;;;1.11;100.00;99576.84;104851;1253;65820;-59
2023/12/14 08:51:20;;;;;;;0.10;0.10;;;;;;;1.12;100.00;99565.34;104913;1254;72798;-60
2023/12/14 08:53:48;;;;;;;0.10;0.10;;;;;;;1.13;100.00;99569.40;104648;1253;60580;-61
2023/12/14 08:56:15;;;;;;;0.30;0.10;;;;;;;1.13;100.00;99562.86;106081;1253;60467;-59
2023/12/14 08:58:43;;;;;;;0.40;0.10;;;;;;;1.13;100.00;99544.65;104852;1253;72644;-59
2023/12/14 09:01:10;;;;;;;0.40;0.10;;;;;;;1.13;100.00;99543.41;104659;1258;67451;-62
2023/12/14 09:03:38;;;;;;;0.30;0.10;;;;;;;1.14;100.00;99538.99;104777;1258;72681;-61
2023/12/14 09:06:05;;;;;;;0.30;0.20;;;;;;;1.15;100.00;99535.80;104905;1253;60521;-59
2023/12/14 09:08:33;;;;;;;0.10;0.10;;;;;;;1.17;100.00;99539.49;104971;1253;60365;-61
2023/12/14 09:11:00;;;;;;;0.10;0.10;;;;;;;1.20;100.00;99543.85;104661;1253;73111;-61
2023/12/14 09:13:28;;;;;;;0.30;0.10;;;;;;;1.21;100.00;99537.64;104877;1258;68411;-60
2023/12/14 09:15:55;;;;;;;0.30;0.20;;;;;;;1.23;100.00;99537.09;104846;1256;71526;-61
2023/12/14 09:18:23;;;;;;;0.30;0.20;;;;;;;1.25;100.00;99536.55;104846;1259;60452;-62
2023/12/14 09:20:51;;;;;;;0.90;0.10;;;;;;;1.26;100.00;99532.11;107971;1254;60460;-63
2023/12/14 09:23:19;;;;;;;0.10;0.10;;;;;;;1.25;100.00;99527.88;104805;1253;71710;-62
2023/12/14 09:25:46;;;;;;;0.60;0.10;;;;;;;1.26;100.00;99518.86;104816;1253;67124;-62
2023/12/14 09:28:14;;;;;;;0.20;0.20;;;;;;;1.25;100.00;99522.22;104849;1258;72733;-59
2023/12/14 09:30:42;;;;;;;0.30;0.20;;;;;;;1.26;100.00;99532.83;104974;1253;60913;-61
2023/12/14 09:33:09;;;;;;;0.40;0.20;;;;;;;1.27;100.00;99539.88;104963;1253;60470;-62
2023/12/14 09:35:37;;;;;;;0.30;0.10;;;;;;;1.30;100.00;99532.92;104871;1259;74821;-61
2023/12/14 09:38:06;;;;;;;0.50;0.30;;;;;;;1.31;100.00;99524.07;104857;1258;67005;-61
2023/12/14 09:40:34;;;;;;;0.20;0.10;;;;;;;1.31;100.00;99515.59;107153;1256;71326;-61
2023/12/14 09:43:03;;;;;;;0.60;0.20;;;;;;;1.28;100.00;99520.58;104859;1253;60553;-60
2023/12/14 09:45:34;;;;;;;0.40;0.20;;;;;;;1.26;100.00;99520.09;104641;1253;60546;-60
2023/12/14 09:48:02;;;;;;;0.20;0.10;;;;;;;1.26;100.00;99511.79;104898;1256;72636;-61
2023/12/14 09:50:30;;;;;;;0.30;0.20;;;;;;;1.25;100.00;99511.62;106361;1257;65652;-61
2023/12/14 09:52:58;;;;;;;0.40;0.20;;;;;;;1.26;100.00;99503.48;107052;1257;72746;-58
2023/12/14 09:55:25;;;;;;;0.30;0.10;;;;;;;1.27;100.00;99499.55;104677;1253;60616;-63
2023/12/14 09:57:53;;;;;;;0.20;0.10;;;;;;;1.29;100.00;99500.93;104869;1258;60452;-62
2023/12/14 10:00:34;;;;;;;0.40;0.20;;;;;;;1.30;100.00;99503.40;104764;1259;72694;-60
2023/12/14 10:03:25;;;;;;;0.20;0.10;;;;;;;1.30;100.00;99517.18;108951;1253;65679;-61
2023/12/14 10:05:54;;;;;;;0.20;0.10;;;;;;;1.31;100.00;99523.19;107160;1258;74612;-60
2023/12/14 10:08:22;;;;;;;0.30;0.20;;;;;;;1.32;100.00;99512.39;108907;1256;60326;-62
2023/12/14 10:10:52;;;;;;;1.70;0.20;;;;;;;1.34;100.00;99515.55;108899;1254;58844;-61
2023/12/14 10:13:21;;;;;;;0.40;0.20;;;;;;;1.38;100.00;99518.30;108846;1255;74313;-60
2023/12/14 10:15:49;;;;;;;1.60;0.20;;;;;;;1.42;100.00;99517.38;108878;1254;64667;-60
2023/12/14 10:18:26;;;;;;;2.10;0.20;;;;;;;1.44;100.00;99511.67;109021;1254;71456;-62
2023/12/14 10:20:56;;;;;;;0.20;0.20;;;;;;;1.45;100.00;99512.19;108842;1254;58514;-59
2023/12/14 10:23:24;;;;;;;0.30;0.30;;;;;;;1.44;100.00;99510.25;105285;1256;60524;-59
2023/12/14 10:25:52;;;;;;;0.40;0.40;;;;;;;1.42;100.00;99503.94;108812;1254;75994;-58
2023/12/14 10:28:20;;;;;;;0.20;0.20;;;;;;;1.40;100.00;99513.15;108954;1253;67051;-58
2023/12/14 10:30:47;;;;;;;0.30;0.20;;;;;;;1.40;100.00;99514.58;104988;1258;73641;-60
2023/12/14 10:33:16;;;;;;;1.30;0.20;;;;;;;1.40;100.00;99511.56;104794;1255;60506;-58
2023/12/14 10:35:46;;;;;;;0.30;0.20;;;;;;;1.42;100.00;99500.93;108406;1254;60524;-61
2023/12/14 10:38:14;;;;;;;0.20;0.20;;;;;;;1.46;100.00;99497.14;104740;1258;74090;-60
2023/12/14 10:40:43;;;;;;;0.30;0.30;;;;;;;1.46;100.00;99495.20;104779;1259;65181;-59
2023/12/14 10:43:11;;;;;;;0.80;0.30;;;;;;;1.47;100.00;99488.82;105285;1254;73546;-59
2023/12/14 10:45:43;;;;;;;0.20;0.20;;;;;;;1.47;100.00;99481.56;104672;1260;60431;-61
2023/12/14 10:48:13;;;;;;;0.30;0.20;;;;;;;1.48;100.00;99465.82;107836;1256;60123;-58
2023/12/14 10:50:42;;;;;;;0.30;0.20;;;;;;;1.46;100.00;99455.95;105679;1256;74414;-61
2023/12/14 10:53:09;;;;;;;0.30;0.20;;;;;;;1.45;100.00;99444.45;104893;1258;67381;-59
2023/12/14 10:55:40;;;;;;;0.20;0.20;;;;;;;1.45;100.00;99443.95;108891;1254;71848;-59
2023/12/14 10:58:08;;;;;;;0.10;0.10;;;;;;;1.43;100.00;99446.98;108092;1256;60952;-58
2023/12/14 11:00:36;;;;;;;0.10;0.10;;;;;;;1.45;100.00;99446.04;104828;1259;60413;-59
2023/12/14 11:03:04;;;;;;;0.20;0.10;;;;;;;1.47;100.00;99451.33;105124;1253;72639;-59
2023/12/14 11:05:36;;;;;;;0.10;0.10;;;;;;;1.49;100.00;99456.44;105544;1253;65658;-58
2023/12/14 11:08:09;;;;;;;0.20;0.20;;;;;;;1.49;100.00;99459.25;104739;1256;73211;-60
2023/12/14 11:10:55;;;;;;;0.30;0.20;;;;;;;1.50;100.00;99457.48;105929;1253;60537;-60
2023/12/14 11:13:22;;;;;;;0.50;0.20;;;;;;;1.49;100.00;99464.38;105134;1253;61906;-61
2023/12/14 11:15:51;;;;;;;0.20;0.20;;;;;;;1.48;100.00;99470.41;104852;1259;73802;-59
2023/12/14 11:18:18;;;;;;;0.10;0.10;;;;;;;1.48;100.00;99468.28;104835;1257;67537;-61
2023/12/14 11:20:46;;;;;;;0.80;0.20;;;;;;;1.49;100.00;99462.97;104895;1259;71443;-60
2023/12/14 11:23:19;;;;;;;0.50;0.20;;;;;;;1.51;100.00;99465.42;107259;1253;60890;-59
2023/12/14 11:25:54;;;;;;;0.40;0.20;;;;;;;1.55;100.00;99457.75;105141;1253;60442;-61
2023/12/14 11:28:45;;;;;;;0.20;0.20;;;;;;;1.58;100.00;99468.48;105388;1253;74010;-62
2023/12/14 11:31:13;;;;;;;0.30;0.20;;;;;;;1.61;100.00;99473.56;105510;1255;65639;-62